createdAt,value
2022-08-05T00:02:21.726Z,25.01
2022-08-05T00:04:55.538Z,25.04
2022-08-05T00:07:59.451Z,25.02
2022-08-05T00:10:11.746Z,24.99
2022-08-05T00:12:55.992Z,24.96
2022-08-05T00:15:55.850Z,24.95
2022-08-05T00:18:15.082Z,24.98
2022-08-05T00:20:49.895Z,24.88
2022-08-05T00:23:44.522Z,24.88
2022-08-05T00:26:05.903Z,24.81
2022-08-05T00:28:33.114Z,24.74
2022-08-05T00:31:04.219Z,24.75
2022-08-05T00:34:53.820Z,24.77
2022-08-05T00:37:11.754Z,24.77
2022-08-05T00:39:13.644Z,24.77
2022-08-05T00:41:51.889Z,24.78
2022-08-05T00:44:30.937Z,24.81
2022-08-05T00:47:04.153Z,24.80
2022-08-05T00:49:51.080Z,24.75
2022-08-05T00:52:28.405Z,24.65
2022-08-05T00:54:56.297Z,24.65
2022-08-05T00:57:25.426Z,24.56
2022-08-05T01:00:07.317Z,24.52
2022-08-05T01:02:38.419Z,24.46
2022-08-05T01:05:09.983Z,24.46
2022-08-05T01:07:37.479Z,24.44
2022-08-05T01:10:31.683Z,24.44
2022-08-05T01:13:13.096Z,24.59
2022-08-05T01:15:47.843Z,24.30
2022-08-05T01:18:23.950Z,24.29
2022-08-05T01:21:00.447Z,24.12
2022-08-05T01:23:39.645Z,24.06
2022-08-05T01:26:17.899Z,23.69
2022-08-05T01:29:03.487Z,23.78
2022-08-05T01:31:53.144Z,23.78
2022-08-05T01:34:26.845Z,23.67
2022-08-05T01:37:02.937Z,23.59
2022-08-05T01:39:46.471Z,23.50
2022-08-05T01:42:19.415Z,23.61
2022-08-05T01:44:54.136Z,23.77
2022-08-05T01:47:24.248Z,23.82
2022-08-05T01:50:01.977Z,23.65
2022-08-05T01:52:32.628Z,23.61
2022-08-05T01:55:04.394Z,23.50
2022-08-05T01:58:10.465Z,23.54
2022-08-05T02:00:30.524Z,23.41
2022-08-05T02:03:04.093Z,23.31
2022-08-05T02:05:35.920Z,23.41
2022-08-05T02:08:05.379Z,23.34
2022-08-05T02:10:52.407Z,23.33
2022-08-05T02:13:53.403Z,23.37
2022-08-05T02:16:25.304Z,23.17
2022-08-05T02:19:02.835Z,23.17
2022-08-05T02:21:43.141Z,23.14
2022-08-05T02:24:18.519Z,23.10
2022-08-05T02:26:51.918Z,23.19
2022-08-05T02:29:26.031Z,23.00
2022-08-05T02:32:11.800Z,22.58
2022-08-05T02:34:54.703Z,22.66
2022-08-05T02:37:24.056Z,22.85
2022-08-05T02:39:53.602Z,22.76
2022-08-05T02:42:27.681Z,22.49
2022-08-05T02:45:01.427Z,22.45
2022-08-05T02:48:06.918Z,22.45
2022-08-05T02:50:19.151Z,22.61
2022-08-05T02:52:47.294Z,22.47
2022-08-05T02:55:17.572Z,22.08
2022-08-05T03:00:55.977Z,21.98
2022-08-05T03:03:23.923Z,21.93
2022-08-05T03:06:56.735Z,22.13
2022-08-05T03:08:42.817Z,22.00
2022-08-05T03:11:54.521Z,21.85
2022-08-05T03:14:13.539Z,21.66
2022-08-05T03:16:41.103Z,21.86
2022-08-05T03:19:16.919Z,22.03
2022-08-05T03:21:48.691Z,22.21
2022-08-05T03:24:27.523Z,22.07
2022-08-05T03:26:58.973Z,21.93
2022-08-05T03:29:45.635Z,22.18
2022-08-05T03:32:19.480Z,21.98
2022-08-05T03:34:49.607Z,21.67
2022-08-05T03:37:20.973Z,21.65
2022-08-05T03:40:01.687Z,21.65
2022-08-05T03:42:41.578Z,21.66
2022-08-05T03:45:22.727Z,21.63
2022-08-05T03:47:51.539Z,21.63
2022-08-05T03:50:19.298Z,21.55
2022-08-05T03:55:34.740Z,21.55
2022-08-05T03:56:10.168Z,21.41
2022-08-05T03:58:42.681Z,21.45
2022-08-05T04:01:14.705Z,21.27
2022-08-05T04:04:09.781Z,21.41
2022-08-05T04:06:35.205Z,21.45
2022-08-05T04:09:06.023Z,21.34
2022-08-05T04:11:50.801Z,21.66
2022-08-05T04:14:30.437Z,21.70
2022-08-05T04:17:00.334Z,21.69
2022-08-05T04:19:29.023Z,21.89
2022-08-05T04:22:08.320Z,21.56
2022-08-05T04:24:43.885Z,21.96
2022-08-05T04:27:13.556Z,22.18
2022-08-05T04:29:41.511Z,22.25
2022-08-05T04:32:09.752Z,22.35
2022-08-05T04:34:43.117Z,22.37
2022-08-05T04:37:10.953Z,22.48
2022-08-05T04:39:39.147Z,22.54
2022-08-05T04:42:07.747Z,22.44
2022-08-05T04:44:36.522Z,22.65
2022-08-05T04:47:09.618Z,22.81
2022-08-05T04:50:01.402Z,22.72
2022-08-05T04:52:27.689Z,22.81
2022-08-05T04:54:57.405Z,22.83
2022-08-05T04:57:28.655Z,23.03
2022-08-05T04:59:58.504Z,22.93
2022-08-05T05:02:36.432Z,22.89
2022-08-05T05:05:26.309Z,22.93
2022-08-05T05:07:56.430Z,23.02
2022-08-05T05:10:29.719Z,23.77
2022-08-05T05:12:57.659Z,24.34
2022-08-05T05:15:57.832Z,25.38
2022-08-05T05:21:06.313Z,26.89
2022-08-05T05:24:02.015Z,27.14
2022-08-05T05:26:28.299Z,27.69
2022-08-05T05:29:02.762Z,28.44
2022-08-05T05:31:41.797Z,28.06
2022-08-05T05:34:13.801Z,28.54
2022-08-05T05:36:42.702Z,29.61
2022-08-05T05:39:13.234Z,30.47
2022-08-05T05:41:41.958Z,30.13
2022-08-05T05:44:36.871Z,30.60
2022-08-05T05:46:57.906Z,32.17
2022-08-05T05:49:25.513Z,32.14
2022-08-05T05:51:53.877Z,32.27
2022-08-05T05:57:19.005Z,33.95
2022-08-05T05:59:48.807Z,33.22
2022-08-05T06:02:16.339Z,33.87
2022-08-05T06:04:44.265Z,33.49
2022-08-05T06:07:16.607Z,33.00
2022-08-05T06:10:01.623Z,34.52
2022-08-05T06:12:32.057Z,33.84
2022-08-05T06:15:01.658Z,34.55
2022-08-05T06:17:31.107Z,34.66
2022-08-05T06:20:21.377Z,35.41
2022-08-05T06:22:49.067Z,34.52
2022-08-05T06:25:59.016Z,35.31
2022-08-05T06:28:11.762Z,35.31
2022-08-05T06:30:48.172Z,35.94
2022-08-05T06:33:19.203Z,35.68
2022-08-05T06:36:03.686Z,34.73
2022-08-05T06:38:36.013Z,36.31
2022-08-05T06:41:07.949Z,36.11
2022-08-05T06:43:57.478Z,35.87
2022-08-05T06:46:29.715Z,34.42
2022-08-05T06:48:59.256Z,36.92
2022-08-05T06:51:31.029Z,36.08
2022-08-05T06:54:01.926Z,36.89
2022-08-05T06:56:30.326Z,36.92
2022-08-05T06:59:08.442Z,37.02
2022-08-05T07:01:36.705Z,35.99
2022-08-05T07:04:04.089Z,37.46
2022-08-05T07:06:32.103Z,37.73
2022-08-05T07:09:04.271Z,37.64
2022-08-05T07:11:37.086Z,38.36
2022-08-05T07:14:29.739Z,39.75
2022-08-05T07:17:59.946Z,38.50
2022-08-05T07:22:41.983Z,40.07
2022-08-05T07:25:54.332Z,40.31
2022-08-05T07:28:04.244Z,40.77
2022-08-05T07:30:39.249Z,40.50
2022-08-05T07:33:16.566Z,41.27
2022-08-05T07:36:03.941Z,41.29
2022-08-05T07:38:42.785Z,40.69
2022-08-05T07:41:35.183Z,40.65
2022-08-05T07:44:05.116Z,41.70
2022-08-05T07:46:33.790Z,42.68
2022-08-05T07:49:05.997Z,42.67
2022-08-05T07:51:37.240Z,42.64
2022-08-05T07:54:33.563Z,42.62
2022-08-05T07:57:22.579Z,42.67
2022-08-05T07:59:49.721Z,42.43
2022-08-05T08:02:18.065Z,42.70
2022-08-05T08:04:47.455Z,42.90
2022-08-05T08:07:15.099Z,42.68
2022-08-05T08:09:43.384Z,42.32
2022-08-05T08:12:33.472Z,42.55
2022-08-05T08:15:02.651Z,43.28
2022-08-05T08:17:32.536Z,42.81
2022-08-05T08:20:21.697Z,42.91
2022-08-05T08:22:59.413Z,42.73
2022-08-05T08:25:59.140Z,43.01
2022-08-05T08:28:37.016Z,44.07
2022-08-05T08:31:17.620Z,43.35
2022-08-05T08:33:45.972Z,44.01
2022-08-05T08:36:39.284Z,44.45
2022-08-05T08:39:15.679Z,43.55
2022-08-05T08:42:00.010Z,43.76
2022-08-05T08:45:20.945Z,44.70
2022-08-05T08:48:06.805Z,43.52
2022-08-05T08:50:29.877Z,43.82
2022-08-05T08:53:08.206Z,44.10
2022-08-05T08:56:03.384Z,44.03
2022-08-05T08:58:43.981Z,43.68
2022-08-05T09:01:18.126Z,43.85
2022-08-05T09:03:48.187Z,43.55
2022-08-05T09:06:21.433Z,43.61
2022-08-05T09:08:51.565Z,43.15
2022-08-05T09:11:18.919Z,44.23
2022-08-05T09:14:54.087Z,43.73
2022-08-05T09:16:54.066Z,43.80
2022-08-05T09:19:21.519Z,43.03
2022-08-05T09:22:17.734Z,42.05
2022-08-05T09:24:44.869Z,41.91
2022-08-05T09:28:04.345Z,40.81
2022-08-05T09:30:19.217Z,39.94
2022-08-05T09:32:51.795Z,40.52
2022-08-05T09:35:27.241Z,39.76
2022-08-05T09:38:16.593Z,39.14
2022-08-05T09:40:52.678Z,38.86
2022-08-05T09:43:41.822Z,39.28
2022-08-05T09:46:30.150Z,39.00
2022-08-05T09:49:07.241Z,38.98
2022-08-05T09:51:38.218Z,38.91
2022-08-05T09:54:09.508Z,38.66
2022-08-05T09:56:38.812Z,38.16
2022-08-05T09:59:17.141Z,38.19
2022-08-05T10:01:46.534Z,38.39
2022-08-05T10:04:16.180Z,38.12
2022-08-05T10:06:59.609Z,36.86
2022-08-05T10:09:29.806Z,36.93
2022-08-05T10:12:30.088Z,36.74
2022-08-05T10:15:25.615Z,36.62
2022-08-05T10:18:14.654Z,37.25
2022-08-05T10:20:50.930Z,37.54
2022-08-05T10:23:55.418Z,37.54
2022-08-05T10:26:15.007Z,37.46
2022-08-05T10:28:45.097Z,36.95
2022-08-05T10:32:49.556Z,37.20
2022-08-05T10:34:03.887Z,36.41
2022-08-05T10:36:36.753Z,36.68
2022-08-05T10:39:25.027Z,36.62
2022-08-05T10:42:13.302Z,36.71
2022-08-05T10:44:45.826Z,36.61
2022-08-05T10:47:27.061Z,36.79
2022-08-05T10:50:31.834Z,36.83
2022-08-05T10:52:58.525Z,36.81
2022-08-05T10:55:27.385Z,36.85
2022-08-05T10:58:11.665Z,36.96
2022-08-05T11:00:47.357Z,37.12
2022-08-05T11:03:24.341Z,37.12
2022-08-05T11:06:15.407Z,36.72
2022-08-05T11:09:13.169Z,36.56
2022-08-05T11:11:53.591Z,36.72
2022-08-05T11:14:57.710Z,36.72
2022-08-05T11:18:00.250Z,36.52
2022-08-05T11:20:41.969Z,36.45
2022-08-05T11:24:02.832Z,36.72
2022-08-05T11:26:28.904Z,36.75
2022-08-05T11:29:12.699Z,36.81
2022-08-05T11:31:54.260Z,36.78
2022-08-05T11:34:51.739Z,36.23
2022-08-05T11:38:36.447Z,36.58
2022-08-05T11:41:34.526Z,36.71
2022-08-05T11:44:05.932Z,36.71
2022-08-05T11:47:09.615Z,36.89
2022-08-05T11:49:34.634Z,36.92
2022-08-05T11:52:11.460Z,36.82
2022-08-05T11:54:40.461Z,36.82
2022-08-05T11:57:24.455Z,36.96
2022-08-05T11:59:56.147Z,37.06
2022-08-05T12:02:33.177Z,36.52
2022-08-05T12:05:06.775Z,36.71
2022-08-05T12:08:07.462Z,36.98
2022-08-05T12:10:38.396Z,37.06
2022-08-05T12:13:27.755Z,37.19
2022-08-05T12:16:14.615Z,37.08
2022-08-05T12:18:48.961Z,37.03
2022-08-05T12:21:26.890Z,36.99
2022-08-05T12:24:04.620Z,36.96
2022-08-05T12:26:43.894Z,37.06
2022-08-05T12:29:17.945Z,36.37
2022-08-05T12:31:53.688Z,36.35
2022-08-05T12:34:25.767Z,36.52
2022-08-05T12:36:55.025Z,36.60
2022-08-05T12:39:34.646Z,36.72
2022-08-05T12:45:09.837Z,36.79
2022-08-05T12:47:37.964Z,36.74
2022-08-05T12:50:17.673Z,36.31
2022-08-05T12:52:59.697Z,36.67
2022-08-05T12:55:32.495Z,36.76
2022-08-05T12:58:49.408Z,36.65
2022-08-05T13:02:04.265Z,36.48
2022-08-05T13:06:29.242Z,36.55
2022-08-05T13:08:57.814Z,36.61
2022-08-05T13:12:01.731Z,36.52
2022-08-05T13:14:24.857Z,36.56
2022-08-05T13:17:31.516Z,36.56
2022-08-05T13:20:09.259Z,36.48
2022-08-05T13:22:40.678Z,36.41
2022-08-05T13:25:18.904Z,36.27
2022-08-05T13:27:53.094Z,36.38
2022-08-05T13:30:35.144Z,36.45
2022-08-05T13:33:03.808Z,36.33
2022-08-05T13:35:47.176Z,36.23
2022-08-05T13:38:30.669Z,36.52
2022-08-05T13:41:01.492Z,36.48
2022-08-05T13:46:50.714Z,36.54
2022-08-05T13:49:10.190Z,36.56
2022-08-05T13:51:40.874Z,36.54
2022-08-05T13:54:12.343Z,36.54
2022-08-05T13:56:51.482Z,36.52
2022-08-05T13:59:25.117Z,36.45
2022-08-05T14:01:58.190Z,36.40
2022-08-05T14:04:51.351Z,35.96
2022-08-05T14:07:55.766Z,36.00
2022-08-05T14:10:18.822Z,36.00
2022-08-05T14:12:48.447Z,36.11
2022-08-05T14:16:07.194Z,36.13
2022-08-05T14:18:04.436Z,36.08
2022-08-05T14:20:32.139Z,36.25
2022-08-05T14:22:59.970Z,36.23
2022-08-05T14:25:30.132Z,36.11
2022-08-05T14:27:58.398Z,36.16
2022-08-05T14:30:27.780Z,36.23
2022-08-05T14:32:56.897Z,36.01
2022-08-05T14:35:37.577Z,36.07
2022-08-05T14:38:27.650Z,36.13
2022-08-05T14:40:59.070Z,36.25
2022-08-05T14:43:59.722Z,36.23
2022-08-05T14:46:13.466Z,36.16
2022-08-05T14:48:40.678Z,36.06
2022-08-05T14:51:08.659Z,36.03
2022-08-05T14:53:44.540Z,36.07
2022-08-05T14:56:13.366Z,36.10
2022-08-05T14:58:47.901Z,36.03
2022-08-05T15:01:37.095Z,36.06
2022-08-05T15:04:11.524Z,36.00
2022-08-05T15:06:40.471Z,36.00
2022-08-05T15:09:07.791Z,35.89
2022-08-05T15:11:52.311Z,35.86
2022-08-05T15:14:34.719Z,35.76
2022-08-05T15:17:41.782Z,35.72
2022-08-05T15:19:57.004Z,35.59
2022-08-05T15:22:24.349Z,35.55
2022-08-05T15:24:55.816Z,35.63
2022-08-05T15:27:25.428Z,35.68
2022-08-05T15:29:54.259Z,35.62
2022-08-05T15:32:28.914Z,35.53
2022-08-05T15:34:57.046Z,35.45
2022-08-05T15:38:09.276Z,35.38
2022-08-05T15:41:03.017Z,35.30
2022-08-05T15:43:12.460Z,35.27
2022-08-05T15:45:45.497Z,35.12
2022-08-05T15:48:14.114Z,34.98
2022-08-05T15:50:43.591Z,35.17
2022-08-05T15:53:12.796Z,35.21
2022-08-05T15:56:04.172Z,35.10
2022-08-05T15:58:29.295Z,35.07
2022-08-05T16:01:11.726Z,35.03
2022-08-05T16:03:48.385Z,35.00
2022-08-05T16:06:19.864Z,34.97
2022-08-05T16:08:51.176Z,34.86
2022-08-05T16:11:42.587Z,34.74
2022-08-05T16:14:09.076Z,34.63
2022-08-05T16:16:36.519Z,34.61
2022-08-05T16:19:04.700Z,34.52
2022-08-05T16:21:59.371Z,34.46
2022-08-05T16:24:39.864Z,34.43
2022-08-05T16:27:09.825Z,34.33
2022-08-05T16:29:50.049Z,34.25
2022-08-05T16:32:23.346Z,34.19
2022-08-05T16:34:57.674Z,34.06
2022-08-05T16:38:02.364Z,33.97
2022-08-05T16:40:28.759Z,33.95
2022-08-05T16:42:56.705Z,33.98
2022-08-05T16:46:04.636Z,33.91
2022-08-05T16:48:11.072Z,33.82
2022-08-05T16:50:53.619Z,33.88
2022-08-05T16:53:22.465Z,33.78
2022-08-05T16:55:58.945Z,33.72
2022-08-05T16:58:26.705Z,33.70
2022-08-05T17:00:53.913Z,33.63
2022-08-05T17:03:22.126Z,33.61
2022-08-05T17:05:53.997Z,33.55
2022-08-05T17:08:36.072Z,33.53
2022-08-05T17:11:16.478Z,33.39
2022-08-05T17:13:45.626Z,33.36
2022-08-05T17:16:32.974Z,33.29
2022-08-05T17:19:00.594Z,33.23
2022-08-05T17:21:36.271Z,33.19
2022-08-05T17:24:19.581Z,33.13
2022-08-05T17:26:57.787Z,33.12
2022-08-05T17:29:39.977Z,33.06
2022-08-05T17:32:11.957Z,32.99
2022-08-05T17:34:49.139Z,32.89
2022-08-05T17:37:39.539Z,32.83
2022-08-05T17:40:10.374Z,32.79
2022-08-05T17:42:42.894Z,32.69
2022-08-05T17:45:21.049Z,32.62
2022-08-05T17:47:54.643Z,32.54
2022-08-05T17:50:28.571Z,32.38
2022-08-05T17:52:59.430Z,32.21
2022-08-05T17:55:37.437Z,32.17
2022-08-05T17:58:09.884Z,32.01
2022-08-05T18:00:44.513Z,31.83
2022-08-05T18:03:28.180Z,31.66
2022-08-05T18:06:04.593Z,31.56
2022-08-05T18:08:33.542Z,31.49
2022-08-05T18:11:03.191Z,31.42
2022-08-05T18:13:36.870Z,31.36
2022-08-05T18:16:13.337Z,31.25
2022-08-05T18:18:41.833Z,31.15
2022-08-05T18:21:20.089Z,31.11
2022-08-05T18:23:52.340Z,30.97
2022-08-05T18:26:29.387Z,30.77
2022-08-05T18:28:59.676Z,30.73
2022-08-05T18:31:33.926Z,30.76
2022-08-05T18:34:05.971Z,30.81
2022-08-05T18:36:35.431Z,30.77
2022-08-05T18:39:09.973Z,30.63
2022-08-05T18:42:02.206Z,30.59
2022-08-05T18:44:35.569Z,30.60
2022-08-05T18:47:16.280Z,30.52
2022-08-05T18:50:01.671Z,30.57
2022-08-05T18:52:33.620Z,30.39
2022-08-05T18:55:06.238Z,30.42
2022-08-05T18:57:50.053Z,30.25
2022-08-05T19:00:28.736Z,30.18
2022-08-05T19:03:04.142Z,30.02
2022-08-05T19:06:13.217Z,29.89
2022-08-05T19:08:21.900Z,29.88
2022-08-05T19:10:59.384Z,29.65
2022-08-05T19:13:27.083Z,29.70
2022-08-05T19:16:03.395Z,29.71
2022-08-05T19:18:31.770Z,29.64
2022-08-05T19:20:59.785Z,29.53
2022-08-05T19:24:05.635Z,29.37
2022-08-05T19:26:18.792Z,29.46
2022-08-05T19:28:46.201Z,29.44
2022-08-05T19:31:17.941Z,29.38
2022-08-05T19:33:48.435Z,29.33
2022-08-05T19:36:26.579Z,29.46
2022-08-05T19:38:58.789Z,29.47
2022-08-05T19:42:05.883Z,29.54
2022-08-05T19:44:15.621Z,29.58
2022-08-05T19:46:43.717Z,29.64
2022-08-05T19:49:12.463Z,29.63
2022-08-05T19:52:08.628Z,29.65
2022-08-05T19:54:34.240Z,29.54
2022-08-05T19:57:09.438Z,29.44
2022-08-05T19:59:56.394Z,29.36
2022-08-05T20:02:30.322Z,29.37
2022-08-05T20:04:59.724Z,29.42
2022-08-05T20:07:46.021Z,29.37
2022-08-05T20:10:17.084Z,29.33
2022-08-05T20:12:48.384Z,29.29
2022-08-05T20:15:48.468Z,29.31
2022-08-05T20:18:10.430Z,29.31
2022-08-05T20:20:55.323Z,29.29
2022-08-05T20:23:40.033Z,29.34
2022-08-05T20:26:16.485Z,29.34
2022-08-05T20:28:51.038Z,29.30
2022-08-05T20:31:21.407Z,29.33
2022-08-05T20:33:51.096Z,29.37
2022-08-05T20:36:19.117Z,29.17
2022-08-05T20:38:54.469Z,29.08
2022-08-05T20:41:43.233Z,29.02
2022-08-05T20:44:18.808Z,28.75
2022-08-05T20:46:48.097Z,28.64
2022-08-05T20:49:15.294Z,28.58
2022-08-05T20:51:53.368Z,28.51
2022-08-05T20:54:22.567Z,28.45
2022-08-05T20:56:52.993Z,28.54
2022-08-05T20:59:27.082Z,28.44
2022-08-05T21:02:07.682Z,28.43
2022-08-05T21:04:36.531Z,28.39
2022-08-05T21:07:05.068Z,28.34
2022-08-05T21:09:35.742Z,28.37
2022-08-05T21:12:07.339Z,28.40
2022-08-05T21:14:38.463Z,28.31
2022-08-05T21:17:06.257Z,28.39
2022-08-05T21:19:46.898Z,28.33
2022-08-05T21:22:23.166Z,28.31
2022-08-05T21:24:52.520Z,28.18
2022-08-05T21:27:27.093Z,28.12
2022-08-05T21:29:56.311Z,28.02
2022-08-05T21:32:27.935Z,28.00
2022-08-05T21:35:17.459Z,27.99
2022-08-05T21:37:52.942Z,27.66
2022-08-05T21:40:24.795Z,27.41
2022-08-05T21:42:53.583Z,27.31
2022-08-05T21:45:24.880Z,27.48
2022-08-05T21:48:09.611Z,27.34
2022-08-05T21:50:37.390Z,27.24
2022-08-05T21:53:17.399Z,27.24
2022-08-05T21:56:06.211Z,27.34
2022-08-05T21:58:32.520Z,27.23
2022-08-05T22:01:00.610Z,27.06
2022-08-05T22:03:52.035Z,27.01
2022-08-05T22:06:22.770Z,26.84
2022-08-05T22:08:52.006Z,26.84
2022-08-05T22:11:34.468Z,26.66
2022-08-05T22:14:05.760Z,26.63
2022-08-05T22:16:56.812Z,26.43
2022-08-05T22:20:00.166Z,26.48
2022-08-05T22:22:15.554Z,26.45
2022-08-05T22:25:01.842Z,26.63
2022-08-05T22:28:10.258Z,26.62
2022-08-05T22:30:35.399Z,26.31
2022-08-05T22:33:15.172Z,26.32
2022-08-05T22:35:48.607Z,26.45
2022-08-05T22:38:19.628Z,26.55
2022-08-05T22:40:49.368Z,26.46
2022-08-05T22:43:37.432Z,26.25
2022-08-05T22:46:13.149Z,26.14
2022-08-05T22:48:43.843Z,26.18
2022-08-05T22:51:22.491Z,26.21
2022-08-05T22:53:51.068Z,26.22
2022-08-05T22:56:30.103Z,26.24
2022-08-05T22:59:04.170Z,25.97
2022-08-05T23:02:04.147Z,25.94
2022-08-05T23:04:32.626Z,25.88
2022-08-05T23:06:59.834Z,25.81
2022-08-05T23:09:57.198Z,25.80
2022-08-05T23:12:17.822Z,25.88
2022-08-05T23:14:45.247Z,25.88
2022-08-05T23:17:34.202Z,25.71
2022-08-05T23:20:16.350Z,25.71
2022-08-05T23:22:47.781Z,25.83
2022-08-05T23:25:52.764Z,25.60
2022-08-05T23:31:16.177Z,25.59
2022-08-05T23:34:03.879Z,25.76
2022-08-05T23:36:39.866Z,25.51
2022-08-05T23:39:17.097Z,25.45
2022-08-05T23:41:51.902Z,25.23
2022-08-05T23:44:19.753Z,25.16
2022-08-05T23:46:52.291Z,25.12
2022-08-05T23:49:23.775Z,25.12
2022-08-05T23:52:19.585Z,25.16
2022-08-05T23:54:49.374Z,25.15
2022-08-05T23:57:16.593Z,25.16
